Riverside, CA (92504)

5:08 PM PDT on August 03, 2015 (GMT -0700)
Arlington Heights | | Change Station
CLOSE
Current Station
Personal Weather Station
Location: Riverside, CA
Elevation: 902 ft
Nearby Weather Stations

Elev 902 ft 33.91 °N, 117.42 °W | Updated 3 minutes ago

Mostly Cloudy
Mostly Cloudy
89.4 °F
Feels Like 90 °F
N
5.0
Wind Variable Wind from NW
Gusts 10.0 mph

Today
High -- | Low -- °F
--% Chance of Precip.
Yesterday
High -- | Low -- °F
Precip. -- in
6:02 AM 7:48 PM
Waning Gibbous, 83% visible
Pressure 29.79 in
Visibility 10.0 miles
Clouds Scattered Clouds 20000 ft
Heat Index 90 °F
Dew Point 61 °F
Humidity 39%
Rainfall 0.00 in
Snow Depth Not available.
UV 3 out of 12
Pollen 4.20 out of 12
Air Quality Not available.
Flu Activity Not available.
METAR KRAL 032353Z 26011G18KT 10SM SCT200 32/15 A2984 RMK AO2 SLP087 T03220150 10350 20272 56013

More Conditions Fewer Conditions

Pressure 29.79 in
Visibility 10.0 miles
Clouds Scattered Clouds 20000 ft
Heat Index 90 °F
Dew Point 61 °F
Humidity 39%
Rainfall 0.00 in
Snow Depth Not available.
UV 3 out of 12
Pollen 4.20 out of 12
Air Quality Not available.
Flu Activity Not available.
METAR KRAL 032353Z 26011G18KT 10SM SCT200 32/15 A2984 RMK AO2 SLP087 T03220150 10350 20272 56013

More Conditions Fewer Conditions

10-Day Weather Forecast

×

Almanac

Astronomy

Aug. 03, 2015 Rise Set
Actual Time
Civil Twilight
Nautical Twilight
Astronomical Twilight
Moon
Length of Visible Light
Length of Day
Tomorrow will be .
, % of the Moon is Illuminated

Today's Extremes

State Highs State Lows

Community

WunderPhotos

Upload Photos

1,843,788 photos uploaded!

WunderBlogs® & News

Nearby

Air Quality

  Air Quality AQ Index Pollutant
Not available.

Snow Depth

Station Depth Elevation

Earthquake Activity

City Distance Mag. Time & Date
Minimum magnitude displayed is 2.5.

Coastal Water Temperatures

Place Temperature

Stations

Nearby Weather Stations

Station Location Temp. Windchill Dew Point Humidity Wind Precip. Elev Updated Type